Gabriella — OJHP — position and weather

sailwx.info

Track history (hours):
 
Tides and Currents Weather Stations Pressure Air Temp Water Temp Dewpoint Dewpoint Depression Visibility Wind Speed Wind Dir Waves Ship Positions

Gabriella

Last reported at 2017-Jun-24 13:30 UTC. Time now 2017-Jun-24 13:46 UTC.
Position N 59°19' E 018°06'.

Length 172 m; draft 6.5 m.

Type: Passenger vessel. MMSI: 230361000.

Date/timePositionNaut miles runAvg speedWind from/ knotsBaromVisibWave heightAir tempDewpointWater temp
2017-Jun-24 13:30N 59°19' E 018°06'0 0.0
2017-Jun-24 13:00N 59°19' E 018°06'0 0.0
2017-Jun-24 12:30N 59°19' E 018°06'0 0.0
2017-Jun-24 12:00N 59°19' E 018°06'0 0.0
2017-Jun-24 11:30N 59°19' E 018°06'0 0.0
2017-Jun-24 11:00N 59°19' E 018°06'0 0.0
2017-Jun-24 10:30N 59°19' E 018°06'0 0.0
2017-Jun-24 10:00N 59°19' E 018°06'0 0.0
2017-Jun-24 09:30N 59°19' E 018°06'0 0.0
2017-Jun-24 09:00N 59°19' E 018°06'0 0.0
2017-Jun-24 08:30N 59°19' E 018°06'0 0.0
2017-Jun-24 08:00N 59°19' E 018°06'3 5.1
2017-Jun-24 07:30N 59°20' E 018°11'611.1
2017-Jun-24 07:01N 59°23' E 018°20'4 6.8
2017-Jun-24 06:29N 59°22' E 018°27'4 8.5
2017-Jun-24 05:59N 59°27' E 018°25'611.1
2017-Jun-24 05:29N 59°31' E 018°31'5 9.9
2017-Jun-24 05:00N 59°34' E 018°38'612.0
2017-Jun-24 04:30N 59°37' E 018°49'510.7
2017-Jun-24 04:01N 59°40' E 018°57'816.1
2017-Jun-24 03:31N 59°44' E 019°11'816.3
2017-Jun-24 03:00N 59°48' E 019°25'816.4
2017-Jun-24 02:31N 59°54' E 019°37'816.7
2017-Jun-24 02:01N 59°60' E 019°48'713.6
2017-Jun-24 01:30N 60°05' E 019°56'3 5.7
2017-Jun-24 01:01N 60°03' E 019°54'917.1
2017-Jun-24 00:31N 59°54' E 019°58'917.0
2017-Jun-24 00:00N 59°49' E 020°10'917.5
2017-Jun-23 23:31N 59°45' E 020°25'917.2
2017-Jun-23 23:01N 59°40' E 020°40'917.2
2017-Jun-23 22:31N 59°38' E 020°57'917.2
2017-Jun-23 22:00N 59°36' E 021°13'917.2
2017-Jun-23 21:31N 59°34' E 021°30'917.1
2017-Jun-23 21:01N 59°32' E 021°46'917.2
2017-Jun-23 20:31N 59°33' E 022°03'917.3
2017-Jun-23 20:01N 59°34' E 022°20'917.2
2017-Jun-23 19:31N 59°36' E 022°37'917.2
2017-Jun-23 19:01N 59°37' E 022°54'917.2
2017-Jun-23 18:31N 59°39' E 023°10'917.2
2017-Jun-23 18:01N 59°42' E 023°26'917.2
2017-Jun-23 17:31N 59°44' E 023°43'917.2
2017-Jun-23 17:00N 59°47' E 023°59'917.3
2017-Jun-23 16:31N 59°49' E 024°16'917.2
2017-Jun-23 16:01N 59°53' E 024°31'917.2
2017-Jun-23 15:31N 59°57' E 024°46'816.2
2017-Jun-23 15:01N 60°03' E 024°57'7 6.5
2017-Jun-23 13:57N 60°10' E 024°58'0 0.0
2017-Jun-23 13:30N 60°10' E 024°58'0 0.0
2017-Jun-23 13:00N 60°10' E 024°58'0 0.0
2017-Jun-23 12:30N 60°10' E 024°58'0 0.0
2017-Jun-23 12:00N 60°10' E 024°58'0 0.0
2017-Jun-23 11:30N 60°10' E 024°58'0 0.0
2017-Jun-23 11:00N 60°10' E 024°58'0 0.0
2017-Jun-23 10:30N 60°10' E 024°58'0 0.0
2017-Jun-23 10:00N 60°10' E 024°58'0 0.0
2017-Jun-23 09:30N 60°10' E 024°58'0 0.0
2017-Jun-23 09:00N 60°10' E 024°58'0 0.0
2017-Jun-23 08:30N 60°10' E 024°58'0 0.0
2017-Jun-23 08:00N 60°10' E 024°58'0 0.0
2017-Jun-23 07:30N 60°10' E 024°58'0 0.4
2017-Jun-23 07:00N 60°10' E 024°58'713.2
2017-Jun-23 06:31N 60°03' E 024°57'917.7
2017-Jun-23 06:00N 59°57' E 024°46'918.3
2017-Jun-23 05:30N 59°52' E 024°30'918.2
2017-Jun-23 05:01N 59°48' E 024°13'918.3
2017-Jun-23 04:31N 59°46' E 023°56'918.3
2017-Jun-23 04:01N 59°44' E 023°38'918.3
2017-Jun-23 03:31N 59°42' E 023°20'918.3
2017-Jun-23 03:00N 59°40' E 023°02'918.3
2017-Jun-23 02:30N 59°38' E 022°45'918.3
2017-Jun-23 02:00N 59°36' E 022°27'918.2
2017-Jun-23 01:30N 59°34' E 022°10'918.2
2017-Jun-23 01:00N 59°32' E 021°52'918.3
2017-Jun-23 00:30N 59°33' E 021°34'918.3
2017-Jun-23 00:00N 59°35' E 021°16'918.3
2017-Jun-22 23:30N 59°37' E 020°59'918.3
2017-Jun-22 23:00N 59°39' E 020°41'917.9
2017-Jun-22 22:30N 59°43' E 020°26'918.3
2017-Jun-22 22:00N 59°48' E 020°11'917.8
2017-Jun-22 21:30N 59°54' E 019°58'917.6
2017-Jun-22 21:00N 60°03' E 019°54'3 5.1
2017-Jun-22 20:31N 60°05' E 019°56'612.8
2017-Jun-22 20:00N 59°60' E 019°49'917.6
2017-Jun-22 19:31N 59°53' E 019°38'917.8
2017-Jun-22 19:01N 59°47' E 019°25'917.1
2017-Jun-22 18:30N 59°44' E 019°09'815.9
2017-Jun-22 18:01N 59°40' E 018°55'510.7
2017-Jun-22 17:30N 59°36' E 018°47'611.8
2017-Jun-22 17:00N 59°33' E 018°37'5 9.9
2017-Jun-22 16:30N 59°30' E 018°29'611.2
2017-Jun-22 16:00N 59°26' E 018°23'4 6.7
2017-Jun-22 15:26N 59°22' E 018°24'410.6
2017-Jun-22 15:00N 59°21' E 018°15'5 5.2
2017-Jun-22 14:01N 59°19' E 018°06'0 0.0
2017-Jun-22 13:31N 59°19' E 018°06'0 0.0
2017-Jun-22 13:01N 59°19' E 018°06'0 0.0
2017-Jun-22 12:31N 59°19' E 018°06'0 0.0
2017-Jun-22 12:01N 59°19' E 018°06'0 0.0
2017-Jun-22 11:31N 59°19' E 018°06'0 0.0
2017-Jun-22 11:01N 59°19' E 018°06'0 0.0
2017-Jun-22 10:31N 59°19' E 018°06'0 0.0
2017-Jun-22 10:01N 59°19' E 018°06'0 0.0
2017-Jun-22 09:30N 59°19' E 018°06'0 0.0
2017-Jun-22 09:01N 59°19' E 018°06'0 0.0
2017-Jun-22 08:31N 59°19' E 018°06'0 0.0
2017-Jun-22 08:00N 59°19' E 018°06'3 5.1
2017-Jun-22 07:31N 59°20' E 018°11'611.0
2017-Jun-22 07:00N 59°23' E 018°20'4 7.5
2017-Jun-22 06:31N 59°22' E 018°27'5 9.2
2017-Jun-22 06:00N 59°26' E 018°23'611.1
2017-Jun-22 05:28N 59°31' E 018°31'5 9.9
2017-Jun-22 05:00N 59°34' E 018°38'611.8
2017-Jun-22 04:31N 59°37' E 018°48'510.5
2017-Jun-22 04:00N 59°40' E 018°56'815.8
2017-Jun-22 03:30N 59°44' E 019°10'816.4
2017-Jun-22 03:00N 59°47' E 019°24'816.6
2017-Jun-22 02:31N 59°53' E 019°36'917.2
2017-Jun-22 02:01N 59°59' E 019°48'714.4
2017-Jun-22 01:31N 60°05' E 019°56'3 6.2
2017-Jun-22 01:01N 60°03' E 019°53'816.9
2017-Jun-22 00:31N 59°54' E 019°58'816.7
2017-Jun-22 00:00N 59°49' E 020°10'917.2
2017-Jun-21 23:31N 59°45' E 020°25'917.0
2017-Jun-21 23:01N 59°41' E 020°40'917.2
2017-Jun-21 22:31N 59°38' E 020°56'917.2
2017-Jun-21 22:01N 59°36' E 021°13'917.2
2017-Jun-21 21:31N 59°34' E 021°29'917.2
2017-Jun-21 21:00N 59°32' E 021°46'917.3
2017-Jun-21 20:31N 59°31' E 022°03'917.6
2017-Jun-21 20:00N 59°33' E 022°20'917.7
2017-Jun-21 19:31N 59°35' E 022°37'917.7
2017-Jun-21 19:01N 59°37' E 022°54'917.3
2017-Jun-21 18:30N 59°40' E 023°10'917.3
2017-Jun-21 18:01N 59°42' E 023°27'917.3
2017-Jun-21 17:31N 59°45' E 023°43'917.3
2017-Jun-21 17:01N 59°47' E 023°59'917.3
2017-Jun-21 16:31N 59°49' E 024°16'917.3
2017-Jun-21 16:00N 59°53' E 024°32'917.3
2017-Jun-21 15:31N 59°57' E 024°47'816.3
2017-Jun-21 15:01N 60°03' E 024°57'612.8
2017-Jun-21 14:31N 60°10' E 024°58'0 0.1
2017-Jun-21 13:29N 60°10' E 024°58'0 0.0
2017-Jun-21 12:59N 60°10' E 024°58'0 0.0
2017-Jun-21 12:29N 60°10' E 024°58'0 0.0
2017-Jun-21 11:59N 60°10' E 024°58'0 0.0
2017-Jun-21 11:29N 60°10' E 024°58'0 0.0
2017-Jun-21 10:59N 60°10' E 024°58'0 0.0
2017-Jun-21 10:29N 60°10' E 024°58'0 0.0
2017-Jun-21 09:59N 60°10' E 024°58'0 0.0
2017-Jun-21 09:29N 60°10' E 024°58'0 0.0
2017-Jun-21 08:59N 60°10' E 024°58'0 0.0
2017-Jun-21 08:29N 60°10' E 024°58'0 0.0
2017-Jun-21 07:59N 60°10' E 024°58'0 0.0
2017-Jun-21 07:29N 60°10' E 024°58'0 1.0
2017-Jun-21 07:01N 60°10' E 024°59'713.7
2017-Jun-21 06:31N 60°03' E 024°58'816.5
2017-Jun-21 06:01N 59°57' E 024°46'918.6
2017-Jun-21 05:31N 59°52' E 024°30'918.5
2017-Jun-21 05:01N 59°49' E 024°13'918.6
2017-Jun-21 04:30N 59°46' E 023°56'918.5
2017-Jun-21 04:01N 59°44' E 023°38'918.4
2017-Jun-21 03:31N 59°42' E 023°20'918.4
2017-Jun-21 03:00N 59°40' E 023°02'918.4
2017-Jun-21 02:31N 59°38' E 022°44'918.4
2017-Jun-21 02:01N 59°36' E 022°27'918.4
2017-Jun-21 01:31N 59°34' E 022°09'918.4
2017-Jun-21 01:01N 59°32' E 021°51'918.4
2017-Jun-21 00:31N 59°33' E 021°33'918.4
2017-Jun-21 00:00N 59°35' E 021°15'918.4
2017-Jun-20 23:30N 59°36' E 020°57'918.4
2017-Jun-20 23:00N 59°38' E 020°39'917.8
2017-Jun-20 22:31N 59°44' E 020°26'918.3
2017-Jun-20 22:01N 59°48' E 020°10'917.8
2017-Jun-20 21:31N 59°55' E 019°58'917.5
2017-Jun-20 21:00N 60°03' E 019°54'2 4.4
2017-Jun-20 20:31N 60°05' E 019°56'612.9
2017-Jun-20 20:00N 59°60' E 019°49'918.1
2017-Jun-20 19:31N 59°53' E 019°36'918.2
2017-Jun-20 19:01N 59°47' E 019°24'918.1
2017-Jun-20 18:31N 59°43' E 019°07'815.0
2017-Jun-20 18:00N 59°39' E 018°55'611.1
2017-Jun-20 17:31N 59°36' E 018°46'611.3
2017-Jun-20 17:00N 59°33' E 018°36'5 9.9
2017-Jun-20 16:31N 59°30' E 018°28'510.7
2017-Jun-20 16:00N 59°25' E 018°24'4 7.2
2017-Jun-20 15:30N 59°22' E 018°25'510.0
2017-Jun-20 15:00N 59°21' E 018°15'510.0
2017-Jun-20 14:30N 59°19' E 018°07'0 0.3
2017-Jun-20 13:29N 59°19' E 018°06'0 0.0
2017-Jun-20 12:59N 59°19' E 018°06'0 0.0
2017-Jun-20 12:29N 59°19' E 018°06'0 0.0
2017-Jun-20 11:56N 59°19' E 018°06'0 0.0
2017-Jun-20 11:29N 59°19' E 018°06'0 0.0
2017-Jun-20 10:59N 59°19' E 018°06'0 0.0
2017-Jun-20 10:29N 59°19' E 018°06'0 0.0
2017-Jun-20 09:59N 59°19' E 018°06'0 0.0
2017-Jun-20 09:29N 59°19' E 018°06'0 0.0
2017-Jun-20 08:59N 59°19' E 018°06'0 0.0
2017-Jun-20 08:29N 59°19' E 018°06'0 0.0
2017-Jun-20 08:01N 59°19' E 018°06'3 6.5
2017-Jun-20 07:31N 59°20' E 018°12'611.3
2017-Jun-20 07:00N 59°22' E 018°22'3 5.4
2017-Jun-20 06:30N 59°24' E 018°27'3 6.8
2017-Jun-20 06:00N 59°27' E 018°26'510.8
2017-Jun-20 05:30N 59°32' E 018°32'510.2
2017-Jun-20 05:00N 59°35' E 018°40'611.9
2017-Jun-20 04:30N 59°38' E 018°50'510.2
2017-Jun-20 04:01N 59°41' E 018°58'816.1
2017-Jun-20 03:30N 59°44' E 019°13'815.7
2017-Jun-20 03:00N 59°48' E 019°26'816.1
2017-Jun-20 02:31N 59°54' E 019°37'816.2
2017-Jun-20 02:00N 59°60' E 019°48'713.5
2017-Jun-20 01:31N 60°05' E 019°56'3 5.9
2017-Jun-20 01:01N 60°03' E 019°54'917.2
2017-Jun-20 00:30N 59°54' E 019°58'917.2
2017-Jun-20 00:00N 59°49' E 020°11'917.3
2017-Jun-19 23:30N 59°44' E 020°26'917.1
2017-Jun-19 23:00N 59°40' E 020°41'917.3
2017-Jun-19 22:30N 59°38' E 020°57'917.3
2017-Jun-19 22:00N 59°36' E 021°14'917.3
2017-Jun-19 21:30N 59°34' E 021°30'917.3
2017-Jun-19 21:00N 59°32' E 021°47'917.2
2017-Jun-19 20:30N 59°33' E 022°04'918.1
2017-Jun-19 20:00N 59°34' E 022°22'917.1
2017-Jun-19 19:31N 59°36' E 022°38'816.9
2017-Jun-19 19:00N 59°37' E 022°54'917.3
2017-Jun-19 18:30N 59°39' E 023°11'917.3
2017-Jun-19 18:01N 59°41' E 023°28'917.3
2017-Jun-19 17:31N 59°44' E 023°44'917.3
2017-Jun-19 17:01N 59°46' E 024°01'917.8
2017-Jun-19 16:30N 59°49' E 024°18'917.4
2017-Jun-19 16:00N 59°53' E 024°33'917.4
2017-Jun-19 15:30N 59°57' E 024°48'816.5
2017-Jun-19 15:00N 60°04' E 024°58'6 5.8
2017-Jun-19 13:59N 60°10' E 024°58'0 0.0
2017-Jun-19 13:29N 60°10' E 024°58'0 0.0
2017-Jun-19 12:50N 60°10' E 024°58'0 0.0
2017-Jun-19 12:29N 60°10' E 024°58'0 0.0
2017-Jun-19 11:59N 60°10' E 024°58'0 0.0
2017-Jun-19 11:29N 60°10' E 024°58'0 0.0
2017-Jun-19 10:59N 60°10' E 024°58'0 0.0
2017-Jun-19 10:29N 60°10' E 024°58'0 0.0
2017-Jun-19 09:59N 60°10' E 024°58'0 0.0
2017-Jun-19 09:29N 60°10' E 024°58'0 0.0
2017-Jun-19 08:56N 60°10' E 024°58'0 0.0
2017-Jun-19 08:29N 60°10' E 024°58'0 0.0
2017-Jun-19 07:59N 60°10' E 024°58'0 0.0
2017-Jun-19 07:29N 60°10' E 024°58'0 1.0
2017-Jun-19 07:01N 60°10' E 024°59'713.7
2017-Jun-19 06:31N 60°03' E 024°58'816.6
2017-Jun-19 06:00N 59°57' E 024°46'918.3
2017-Jun-19 05:31N 59°52' E 024°30'918.3
2017-Jun-19 05:01N 59°48' E 024°14'918.4
2017-Jun-19 04:31N 59°46' E 023°56'918.4
2017-Jun-19 04:00N 59°43' E 023°39'918.5
2017-Jun-19 03:31N 59°41' E 023°21'918.4
2017-Jun-19 03:01N 59°39' E 023°03'918.3
2017-Jun-19 02:31N 59°37' E 022°46'918.3
2017-Jun-19 02:01N 59°36' E 022°28'918.3
2017-Jun-19 01:31N 59°34' E 022°10'918.3
2017-Jun-19 01:01N 59°32' E 021°52'918.3
2017-Jun-19 00:30N 59°33' E 021°34'918.3
2017-Jun-19 00:00N 59°35' E 021°17'918.3
2017-Jun-18 23:30N 59°37' E 020°59'918.3
2017-Jun-18 23:00N 59°39' E 020°41'917.9
2017-Jun-18 22:31N 59°44' E 020°26'918.3
2017-Jun-18 22:01N 59°48' E 020°11'917.8
2017-Jun-18 21:31N 59°54' E 019°58'917.6
2017-Jun-18 21:01N 60°03' E 019°54'3 5.0
2017-Jun-18 20:30N 60°05' E 019°56'612.4
2017-Jun-18 20:01N 60°00' E 019°49'1019.7
2017-Jun-18 19:31N 59°53' E 019°35'1020.0
2017-Jun-18 19:01N 59°47' E 019°20'1019.1
2017-Jun-18 18:31N 59°42' E 019°03'612.6
2017-Jun-18 18:00N 59°38' E 018°53'612.2
2017-Jun-18 17:31N 59°35' E 018°43'510.7
2017-Jun-18 17:01N 59°32' E 018°34'510.3
2017-Jun-18 16:30N 59°29' E 018°27'5 9.4
2017-Jun-18 16:00N 59°24' E 018°26'3 6.1
2017-Jun-18 15:30N 59°22' E 018°22'510.9
2017-Jun-18 15:00N 59°20' E 018°12'3 3.2
2017-Jun-18 13:58N 59°19' E 018°06'0 0.0
2017-Jun-18 13:28N 59°19' E 018°06'0 0.0
2017-Jun-18 12:55N 59°19' E 018°06'0 0.0
2017-Jun-18 12:28N 59°19' E 018°06'0 0.0
2017-Jun-18 11:58N 59°19' E 018°06'0 0.0
2017-Jun-18 11:28N 59°19' E 018°06'0 0.0
2017-Jun-18 10:58N 59°19' E 018°06'0 0.0
2017-Jun-18 10:25N 59°19' E 018°06'0 0.0
2017-Jun-18 09:55N 59°19' E 018°06'0 0.0
2017-Jun-18 09:19N 59°19' E 018°06'0 0.0
2017-Jun-18 08:55N 59°19' E 018°06'0 0.0
2017-Jun-18 08:25N 59°19' E 018°06'0 0.0
2017-Jun-18 08:00N 59°19' E 018°06'4 7.3
2017-Jun-18 07:30N 59°20' E 018°13'611.0
2017-Jun-18 07:00N 59°22' E 018°23'2 5.0
2017-Jun-18 06:30N 59°24' E 018°26'4 7.0
2017-Jun-18 06:00N 59°27' E 018°26'510.7
2017-Jun-18 05:30N 59°32' E 018°32'510.3
2017-Jun-18 05:01N 59°35' E 018°41'612.0
2017-Jun-18 04:30N 59°38' E 018°51'510.5
2017-Jun-18 04:01N 59°41' E 018°59'815.8
2017-Jun-18 03:31N 59°44' E 019°13'815.8
2017-Jun-18 03:01N 59°48' E 019°27'816.0
2017-Jun-18 02:30N 59°54' E 019°38'816.2
2017-Jun-18 02:00N 59°60' E 019°49'612.9
2017-Jun-18 01:30N 60°05' E 019°56'3 5.9
2017-Jun-18 01:01N 60°03' E 019°54'917.4
2017-Jun-18 00:30N 59°54' E 019°58'917.3
2017-Jun-18 00:00N 59°49' E 020°11'917.5
2017-Jun-17 23:30N 59°44' E 020°26'917.2
2017-Jun-17 23:01N 59°40' E 020°41'917.4
2017-Jun-17 22:30N 59°38' E 020°58'917.4
2017-Jun-17 22:00N 59°36' E 021°14'917.4
2017-Jun-17 21:30N 59°34' E 021°31'917.4
2017-Jun-17 21:01N 59°32' E 021°48'917.4
2017-Jun-17 20:30N 59°33' E 022°05'917.5
2017-Jun-17 20:01N 59°34' E 022°22'918.1
2017-Jun-17 19:30N 59°36' E 022°40'816.9
2017-Jun-17 19:00N 59°38' E 022°56'917.5
2017-Jun-17 18:30N 59°39' E 023°13'917.4
2017-Jun-17 18:01N 59°42' E 023°30'917.4
2017-Jun-17 17:30N 59°44' E 023°46'917.4
2017-Jun-17 17:01N 59°47' E 024°03'917.4
2017-Jun-17 16:31N 59°49' E 024°19'917.4
2017-Jun-17 16:01N 59°53' E 024°35'917.4
2017-Jun-17 15:31N 59°58' E 024°49'816.6
2017-Jun-17 15:00N 60°05' E 024°58'510.1
2017-Jun-17 14:31N 60°10' E 024°58'0 0.1
2017-Jun-17 13:30N 60°10' E 024°58'0 0.0
2017-Jun-17 13:00N 60°10' E 024°58'0 0.0
2017-Jun-17 12:30N 60°10' E 024°58'0 0.0
2017-Jun-17 12:00N 60°10' E 024°58'0 0.0
2017-Jun-17 11:30N 60°10' E 024°58'0 0.0
2017-Jun-17 11:00N 60°10' E 024°58'0 0.0
2017-Jun-17 10:30N 60°10' E 024°58'0 0.0
2017-Jun-17 10:00N 60°10' E 024°58'0 0.0
2017-Jun-17 09:30N 60°10' E 024°58'0 0.0
2017-Jun-17 09:00N 60°10' E 024°58'0 0.0
2017-Jun-17 08:30N 60°10' E 024°58'0 0.0
2017-Jun-17 08:00N 60°10' E 024°58'0 0.0
2017-Jun-17 07:30N 60°10' E 024°58'0 0.8
2017-Jun-17 07:00N 60°10' E 024°59'713.8
2017-Jun-17 06:31N 60°03' E 024°58'816.6
2017-Jun-17 06:01N 59°57' E 024°46'918.4
2017-Jun-17 05:31N 59°52' E 024°30'918.3
2017-Jun-17 05:01N 59°48' E 024°14'918.4
2017-Jun-17 04:31N 59°46' E 023°56'918.4
2017-Jun-17 04:01N 59°44' E 023°38'918.4
2017-Jun-17 03:31N 59°42' E 023°21'918.4
2017-Jun-17 03:00N 59°40' E 023°03'918.4
2017-Jun-17 02:30N 59°37' E 022°45'918.4
2017-Jun-17 02:01N 59°36' E 022°27'918.4
2017-Jun-17 01:31N 59°34' E 022°09'918.4
2017-Jun-17 01:01N 59°32' E 021°51'918.3
2017-Jun-17 00:31N 59°33' E 021°33'918.5
2017-Jun-17 00:00N 59°35' E 021°16'918.4
2017-Jun-16 23:31N 59°37' E 020°58'918.5
2017-Jun-16 23:01N 59°39' E 020°40'918.1
2017-Jun-16 22:31N 59°44' E 020°25'918.5
2017-Jun-16 22:01N 59°49' E 020°10'917.8
2017-Jun-16 21:31N 59°55' E 019°57'917.2
2017-Jun-16 21:01N 60°04' E 019°54'2 3.7
2017-Jun-16 20:31N 60°05' E 019°56'612.7
2017-Jun-16 20:01N 59°60' E 019°49'917.7
2017-Jun-16 19:31N 59°54' E 019°36'917.8
2017-Jun-16 19:01N 59°47' E 019°24'917.5
2017-Jun-16 18:30N 59°44' E 019°08'815.7
2017-Jun-16 18:00N 59°39' E 018°55'511.0
2017-Jun-16 17:30N 59°36' E 018°46'611.5
2017-Jun-16 17:00N 59°33' E 018°37'5 9.9
2017-Jun-16 16:31N 59°30' E 018°29'510.9
2017-Jun-16 16:00N 59°25' E 018°24'4 7.7
2017-Jun-16 15:30N 59°22' E 018°25'510.3
2017-Jun-16 15:00N 59°21' E 018°15'5 9.7
2017-Jun-16 14:30N 59°19' E 018°06'0 0.2
2017-Jun-16 13:24N 59°19' E 018°06'0 0.0
2017-Jun-16 12:59N 59°19' E 018°06'0 0.0
2017-Jun-16 12:26N 59°19' E 018°06'0 0.0
2017-Jun-16 11:56N 59°19' E 018°06'0 0.0
2017-Jun-16 11:26N 59°19' E 018°06'0 0.0
2017-Jun-16 10:53N 59°19' E 018°06'0 0.0
2017-Jun-16 10:20N 59°19' E 018°06'0 0.0
2017-Jun-16 09:50N 59°19' E 018°06'0 0.0
2017-Jun-16 09:26N 59°19' E 018°06'0 0.0
2017-Jun-16 08:50N 59°19' E 018°06'0 0.0
2017-Jun-16 08:26N 59°19' E 018°06'0 0.0
2017-Jun-16 08:00N 59°19' E 018°06'3 6.6
2017-Jun-16 07:30N 59°20' E 018°12'611.2
2017-Jun-16 07:00N 59°22' E 018°22'3 5.5
2017-Jun-16 06:30N 59°24' E 018°27'4 7.5
2017-Jun-16 06:01N 59°27' E 018°26'510.7
2017-Jun-16 05:30N 59°32' E 018°32'510.3
2017-Jun-16 05:01N 59°35' E 018°41'612.0
2017-Jun-16 04:30N 59°38' E 018°51'510.6
2017-Jun-16 04:01N 59°41' E 018°59'816.2
2017-Jun-16 03:30N 59°44' E 019°14'816.2
2017-Jun-16 03:01N 59°49' E 019°27'816.2
2017-Jun-16 02:31N 59°55' E 019°39'816.0
2017-Jun-16 02:00N 60°00' E 019°50'611.8
2017-Jun-16 01:30N 60°05' E 019°56'3 6.1
2017-Jun-16 01:01N 60°03' E 019°54'917.4
2017-Jun-16 00:31N 59°54' E 019°58'917.4
2017-Jun-16 00:00N 59°48' E 020°11'917.8
2017-Jun-15 23:31N 59°44' E 020°26'917.6
2017-Jun-15 23:01N 59°40' E 020°42'917.6
2017-Jun-15 22:30N 59°38' E 020°59'917.6
2017-Jun-15 22:00N 59°36' E 021°16'917.6
2017-Jun-15 21:31N 59°34' E 021°33'917.5
2017-Jun-15 21:01N 59°32' E 021°50'917.8
2017-Jun-15 20:30N 59°33' E 022°07'917.8
2017-Jun-15 20:01N 59°35' E 022°24'917.8
2017-Jun-15 19:31N 59°36' E 022°42'917.8
2017-Jun-15 19:01N 59°38' E 022°59'917.8
2017-Jun-15 18:31N 59°40' E 023°16'917.7
2017-Jun-15 18:01N 59°42' E 023°33'917.7
2017-Jun-15 17:31N 59°45' E 023°50'917.8
2017-Jun-15 17:00N 59°47' E 024°07'918.7
2017-Jun-15 16:31N 59°50' E 024°24'816.8
2017-Jun-15 16:00N 59°55' E 024°39'917.8
2017-Jun-15 15:30N 59°59' E 024°54'816.1
2017-Jun-15 15:00N 60°07' E 024°59'3 5.9
2017-Jun-15 14:30N 60°10' E 024°58'0 0.0
2017-Jun-15 13:29N 60°10' E 024°58'0 0.0
2017-Jun-15 12:59N 60°10' E 024°58'0 0.0
2017-Jun-15 12:28N 60°10' E 024°58'0 0.0
2017-Jun-15 12:00N 60°10' E 024°58'0 0.0
2017-Jun-15 11:26N 60°10' E 024°58'0 0.0
2017-Jun-15 10:58N 60°10' E 024°58'0 0.0
2017-Jun-15 10:29N 60°10' E 024°58'0 0.0
2017-Jun-15 09:59N 60°10' E 024°58'21 4.8
2017-Jun-15 05:36N 59°53' E 024°33'418.4
2017-Jun-15 05:22N 59°51' E 024°26'618.2
2017-Jun-15 05:00N 59°48' E 024°14'918.3
2017-Jun-15 04:30N 59°46' E 023°56'918.3
2017-Jun-15 04:00N 59°44' E 023°38'918.3
2017-Jun-15 03:31N 59°41' E 023°21'918.3
2017-Jun-15 03:01N 59°39' E 023°03'918.3
2017-Jun-15 02:30N 59°37' E 022°45'918.3
2017-Jun-15 02:00N 59°36' E 022°28'918.2
2017-Jun-15 01:30N 59°34' E 022°10'918.2
2017-Jun-15 01:00N 59°32' E 021°53'918.3
2017-Jun-15 00:31N 59°33' E 021°35'1018.3
2017-Jun-14 23:58N 59°35' E 021°15'4317.7
2017-Jun-14 21:32N 59°53' E 019°58'013.5
2017-Jun-14 21:30N 59°54' E 019°58'917.9
2017-Jun-14 21:01N 60°02' E 019°53'3 6.5
2017-Jun-14 20:30N 60°05' E 019°56'713.1
2017-Jun-14 20:00N 59°60' E 019°49'1020.6
2017-Jun-14 19:31N 59°52' E 019°34'1020.4
2017-Jun-14 19:01N 59°46' E 019°20'1019.0
2017-Jun-14 18:31N 59°42' E 019°02'714.0
2017-Jun-14 18:00N 59°38' E 018°51'5 9.8
2017-Jun-14 17:30N 59°35' E 018°43'510.6
2017-Jun-14 17:00N 59°32' E 018°34'510.1
2017-Jun-14 16:30N 59°29' E 018°27'5 9.3
2017-Jun-14 16:00N 59°24' E 018°26'3 5.6
2017-Jun-14 15:30N 59°22' E 018°23'510.4
2017-Jun-14 15:01N 59°20' E 018°13'4 4.0
2017-Jun-14 14:00N 59°19' E 018°06'  
Track history (hours):
 
Tides and Currents Weather Stations Pressure Air Temp Water Temp Dewpoint Dewpoint Depression Visibility Wind Speed Wind Dir Waves Ship Positions

Gabriella

Last reported at 2017-Jun-24 13:30 UTC. Time now 2017-Jun-24 13:46 UTC.
Position N 59°19' E 018°06'.

Length 172 m; draft 6.5 m.

Type: Passenger vessel. MMSI: 230361000.

Date/timePositionNaut miles runAvg speedWind from/ knotsBaromVisibWave heightAir tempDewpointWater temp
2017-Jun-24 13:30N 59°19' E 018°06'0 0.0
2017-Jun-24 13:00N 59°19' E 018°06'0 0.0
2017-Jun-24 12:30N 59°19' E 018°06'0 0.0
2017-Jun-24 12:00N 59°19' E 018°06'0 0.0
2017-Jun-24 11:30N 59°19' E 018°06'0 0.0
2017-Jun-24 11:00N 59°19' E 018°06'0 0.0
2017-Jun-24 10:30N 59°19' E 018°06'0 0.0
2017-Jun-24 10:00N 59°19' E 018°06'0 0.0
2017-Jun-24 09:30N 59°19' E 018°06'0 0.0
2017-Jun-24 09:00N 59°19' E 018°06'0 0.0
2017-Jun-24 08:30N 59°19' E 018°06'0 0.0
2017-Jun-24 08:00N 59°19' E 018°06'3 5.1
2017-Jun-24 07:30N 59°20' E 018°11'611.1
2017-Jun-24 07:01N 59°23' E 018°20'4 6.8
2017-Jun-24 06:29N 59°22' E 018°27'4 8.5
2017-Jun-24 05:59N 59°27' E 018°25'611.1
2017-Jun-24 05:29N 59°31' E 018°31'5 9.9
2017-Jun-24 05:00N 59°34' E 018°38'612.0
2017-Jun-24 04:30N 59°37' E 018°49'510.7
2017-Jun-24 04:01N 59°40' E 018°57'816.1
2017-Jun-24 03:31N 59°44' E 019°11'816.3
2017-Jun-24 03:00N 59°48' E 019°25'816.4
2017-Jun-24 02:31N 59°54' E 019°37'816.7
2017-Jun-24 02:01N 59°60' E 019°48'713.6
2017-Jun-24 01:30N 60°05' E 019°56'3 5.7
2017-Jun-24 01:01N 60°03' E 019°54'917.1
2017-Jun-24 00:31N 59°54' E 019°58'917.0
2017-Jun-24 00:00N 59°49' E 020°10'917.5
2017-Jun-23 23:31N 59°45' E 020°25'917.2
2017-Jun-23 23:01N 59°40' E 020°40'917.2
2017-Jun-23 22:31N 59°38' E 020°57'917.2
2017-Jun-23 22:00N 59°36' E 021°13'917.2
2017-Jun-23 21:31N 59°34' E 021°30'917.1
2017-Jun-23 21:01N 59°32' E 021°46'917.2
2017-Jun-23 20:31N 59°33' E 022°03'917.3
2017-Jun-23 20:01N 59°34' E 022°20'917.2
2017-Jun-23 19:31N 59°36' E 022°37'917.2
2017-Jun-23 19:01N 59°37' E 022°54'917.2
2017-Jun-23 18:31N 59°39' E 023°10'917.2
2017-Jun-23 18:01N 59°42' E 023°26'917.2
2017-Jun-23 17:31N 59°44' E 023°43'917.2
2017-Jun-23 17:00N 59°47' E 023°59'917.3
2017-Jun-23 16:31N 59°49' E 024°16'917.2
2017-Jun-23 16:01N 59°53' E 024°31'917.2
2017-Jun-23 15:31N 59°57' E 024°46'816.2
2017-Jun-23 15:01N 60°03' E 024°57'7 6.5
2017-Jun-23 13:57N 60°10' E 024°58'0 0.0
2017-Jun-23 13:30N 60°10' E 024°58'0 0.0
2017-Jun-23 13:00N 60°10' E 024°58'0 0.0
2017-Jun-23 12:30N 60°10' E 024°58'0 0.0
2017-Jun-23 12:00N 60°10' E 024°58'0 0.0
2017-Jun-23 11:30N 60°10' E 024°58'0 0.0
2017-Jun-23 11:00N 60°10' E 024°58'0 0.0
2017-Jun-23 10:30N 60°10' E 024°58'0 0.0
2017-Jun-23 10:00N 60°10' E 024°58'0 0.0
2017-Jun-23 09:30N 60°10' E 024°58'0 0.0
2017-Jun-23 09:00N 60°10' E 024°58'0 0.0
2017-Jun-23 08:30N 60°10' E 024°58'0 0.0
2017-Jun-23 08:00N 60°10' E 024°58'0 0.0
2017-Jun-23 07:30N 60°10' E 024°58'0 0.4
2017-Jun-23 07:00N 60°10' E 024°58'713.2
2017-Jun-23 06:31N 60°03' E 024°57'917.7
2017-Jun-23 06:00N 59°57' E 024°46'918.3
2017-Jun-23 05:30N 59°52' E 024°30'918.2
2017-Jun-23 05:01N 59°48' E 024°13'918.3
2017-Jun-23 04:31N 59°46' E 023°56'918.3
2017-Jun-23 04:01N 59°44' E 023°38'918.3
2017-Jun-23 03:31N 59°42' E 023°20'918.3
2017-Jun-23 03:00N 59°40' E 023°02'918.3
2017-Jun-23 02:30N 59°38' E 022°45'918.3
2017-Jun-23 02:00N 59°36' E 022°27'918.2
2017-Jun-23 01:30N 59°34' E 022°10'918.2
2017-Jun-23 01:00N 59°32' E 021°52'918.3
2017-Jun-23 00:30N 59°33' E 021°34'918.3
2017-Jun-23 00:00N 59°35' E 021°16'918.3
2017-Jun-22 23:30N 59°37' E 020°59'918.3
2017-Jun-22 23:00N 59°39' E 020°41'917.9
2017-Jun-22 22:30N 59°43' E 020°26'918.3
2017-Jun-22 22:00N 59°48' E 020°11'917.8
2017-Jun-22 21:30N 59°54' E 019°58'917.6
2017-Jun-22 21:00N 60°03' E 019°54'3 5.1
2017-Jun-22 20:31N 60°05' E 019°56'612.8
2017-Jun-22 20:00N 59°60' E 019°49'917.6
2017-Jun-22 19:31N 59°53' E 019°38'917.8
2017-Jun-22 19:01N 59°47' E 019°25'917.1
2017-Jun-22 18:30N 59°44' E 019°09'815.9
2017-Jun-22 18:01N 59°40' E 018°55'510.7
2017-Jun-22 17:30N 59°36' E 018°47'611.8
2017-Jun-22 17:00N 59°33' E 018°37'5 9.9
2017-Jun-22 16:30N 59°30' E 018°29'611.2
2017-Jun-22 16:00N 59°26' E 018°23'4 6.7
2017-Jun-22 15:26N 59°22' E 018°24'410.6
2017-Jun-22 15:00N 59°21' E 018°15'5 5.2
2017-Jun-22 14:01N 59°19' E 018°06'0 0.0
2017-Jun-22 13:31N 59°19' E 018°06'0 0.0
2017-Jun-22 13:01N 59°19' E 018°06'0 0.0
2017-Jun-22 12:31N 59°19' E 018°06'0 0.0
2017-Jun-22 12:01N 59°19' E 018°06'0 0.0
2017-Jun-22 11:31N 59°19' E 018°06'0 0.0
2017-Jun-22 11:01N 59°19' E 018°06'0 0.0
2017-Jun-22 10:31N 59°19' E 018°06'0 0.0
2017-Jun-22 10:01N 59°19' E 018°06'0 0.0
2017-Jun-22 09:30N 59°19' E 018°06'0 0.0
2017-Jun-22 09:01N 59°19' E 018°06'0 0.0
2017-Jun-22 08:31N 59°19' E 018°06'0 0.0
2017-Jun-22 08:00N 59°19' E 018°06'3 5.1
2017-Jun-22 07:31N 59°20' E 018°11'611.0
2017-Jun-22 07:00N 59°23' E 018°20'4 7.5
2017-Jun-22 06:31N 59°22' E 018°27'5 9.2
2017-Jun-22 06:00N 59°26' E 018°23'611.1
2017-Jun-22 05:28N 59°31' E 018°31'5 9.9
2017-Jun-22 05:00N 59°34' E 018°38'611.8
2017-Jun-22 04:31N 59°37' E 018°48'510.5
2017-Jun-22 04:00N 59°40' E 018°56'815.8
2017-Jun-22 03:30N 59°44' E 019°10'816.4
2017-Jun-22 03:00N 59°47' E 019°24'816.6
2017-Jun-22 02:31N 59°53' E 019°36'917.2
2017-Jun-22 02:01N 59°59' E 019°48'714.4
2017-Jun-22 01:31N 60°05' E 019°56'3 6.2
2017-Jun-22 01:01N 60°03' E 019°53'816.9
2017-Jun-22 00:31N 59°54' E 019°58'816.7
2017-Jun-22 00:00N 59°49' E 020°10'917.2
2017-Jun-21 23:31N 59°45' E 020°25'917.0
2017-Jun-21 23:01N 59°41' E 020°40'917.2
2017-Jun-21 22:31N 59°38' E 020°56'917.2
2017-Jun-21 22:01N 59°36' E 021°13'917.2
2017-Jun-21 21:31N 59°34' E 021°29'917.2
2017-Jun-21 21:00N 59°32' E 021°46'917.3
2017-Jun-21 20:31N 59°31' E 022°03'917.6
2017-Jun-21 20:00N 59°33' E 022°20'917.7
2017-Jun-21 19:31N 59°35' E 022°37'917.7
2017-Jun-21 19:01N 59°37' E 022°54'917.3
2017-Jun-21 18:30N 59°40' E 023°10'917.3
2017-Jun-21 18:01N 59°42' E 023°27'917.3
2017-Jun-21 17:31N 59°45' E 023°43'917.3
2017-Jun-21 17:01N 59°47' E 023°59'917.3
2017-Jun-21 16:31N 59°49' E 024°16'917.3
2017-Jun-21 16:00N 59°53' E 024°32'917.3
2017-Jun-21 15:31N 59°57' E 024°47'816.3
2017-Jun-21 15:01N 60°03' E 024°57'612.8
2017-Jun-21 14:31N 60°10' E 024°58'0 0.1
2017-Jun-21 13:29N 60°10' E 024°58'0 0.0
2017-Jun-21 12:59N 60°10' E 024°58'0 0.0
2017-Jun-21 12:29N 60°10' E 024°58'0 0.0
2017-Jun-21 11:59N 60°10' E 024°58'0 0.0
2017-Jun-21 11:29N 60°10' E 024°58'0 0.0
2017-Jun-21 10:59N 60°10' E 024°58'0 0.0
2017-Jun-21 10:29N 60°10' E 024°58'0 0.0
2017-Jun-21 09:59N 60°10' E 024°58'0 0.0
2017-Jun-21 09:29N 60°10' E 024°58'0 0.0
2017-Jun-21 08:59N 60°10' E 024°58'0 0.0
2017-Jun-21 08:29N 60°10' E 024°58'0 0.0
2017-Jun-21 07:59N 60°10' E 024°58'0 0.0
2017-Jun-21 07:29N 60°10' E 024°58'0 1.0
2017-Jun-21 07:01N 60°10' E 024°59'713.7
2017-Jun-21 06:31N 60°03' E 024°58'816.5
2017-Jun-21 06:01N 59°57' E 024°46'918.6
2017-Jun-21 05:31N 59°52' E 024°30'918.5
2017-Jun-21 05:01N 59°49' E 024°13'918.6
2017-Jun-21 04:30N 59°46' E 023°56'918.5
2017-Jun-21 04:01N 59°44' E 023°38'918.4
2017-Jun-21 03:31N 59°42' E 023°20'918.4
2017-Jun-21 03:00N 59°40' E 023°02'918.4
2017-Jun-21 02:31N 59°38' E 022°44'918.4
2017-Jun-21 02:01N 59°36' E 022°27'918.4
2017-Jun-21 01:31N 59°34' E 022°09'918.4
2017-Jun-21 01:01N 59°32' E 021°51'918.4
2017-Jun-21 00:31N 59°33' E 021°33'918.4
2017-Jun-21 00:00N 59°35' E 021°15'918.4
2017-Jun-20 23:30N 59°36' E 020°57'918.4
2017-Jun-20 23:00N 59°38' E 020°39'917.8
2017-Jun-20 22:31N 59°44' E 020°26'918.3
2017-Jun-20 22:01N 59°48' E 020°10'917.8
2017-Jun-20 21:31N 59°55' E 019°58'917.5
2017-Jun-20 21:00N 60°03' E 019°54'2 4.4
2017-Jun-20 20:31N 60°05' E 019°56'612.9
2017-Jun-20 20:00N 59°60' E 019°49'918.1
2017-Jun-20 19:31N 59°53' E 019°36'918.2
2017-Jun-20 19:01N 59°47' E 019°24'918.1
2017-Jun-20 18:31N 59°43' E 019°07'815.0
2017-Jun-20 18:00N 59°39' E 018°55'611.1
2017-Jun-20 17:31N 59°36' E 018°46'611.3
2017-Jun-20 17:00N 59°33' E 018°36'5 9.9
2017-Jun-20 16:31N 59°30' E 018°28'510.7
2017-Jun-20 16:00N 59°25' E 018°24'4 7.2
2017-Jun-20 15:30N 59°22' E 018°25'510.0
2017-Jun-20 15:00N 59°21' E 018°15'510.0
2017-Jun-20 14:30N 59°19' E 018°07'0 0.3
2017-Jun-20 13:29N 59°19' E 018°06'0 0.0
2017-Jun-20 12:59N 59°19' E 018°06'0 0.0
2017-Jun-20 12:29N 59°19' E 018°06'0 0.0
2017-Jun-20 11:56N 59°19' E 018°06'0 0.0
2017-Jun-20 11:29N 59°19' E 018°06'0 0.0
2017-Jun-20 10:59N 59°19' E 018°06'0 0.0
2017-Jun-20 10:29N 59°19' E 018°06'0 0.0
2017-Jun-20 09:59N 59°19' E 018°06'0 0.0
2017-Jun-20 09:29N 59°19' E 018°06'0 0.0
2017-Jun-20 08:59N 59°19' E 018°06'0 0.0
2017-Jun-20 08:29N 59°19' E 018°06'0 0.0
2017-Jun-20 08:01N 59°19' E 018°06'3 6.5
2017-Jun-20 07:31N 59°20' E 018°12'611.3
2017-Jun-20 07:00N 59°22' E 018°22'3 5.4
2017-Jun-20 06:30N 59°24' E 018°27'3 6.8
2017-Jun-20 06:00N 59°27' E 018°26'510.8
2017-Jun-20 05:30N 59°32' E 018°32'510.2
2017-Jun-20 05:00N 59°35' E 018°40'611.9
2017-Jun-20 04:30N 59°38' E 018°50'510.2
2017-Jun-20 04:01N 59°41' E 018°58'816.1
2017-Jun-20 03:30N 59°44' E 019°13'815.7
2017-Jun-20 03:00N 59°48' E 019°26'816.1
2017-Jun-20 02:31N 59°54' E 019°37'816.2
2017-Jun-20 02:00N 59°60' E 019°48'713.5
2017-Jun-20 01:31N 60°05' E 019°56'3 5.9
2017-Jun-20 01:01N 60°03' E 019°54'917.2
2017-Jun-20 00:30N 59°54' E 019°58'917.2
2017-Jun-20 00:00N 59°49' E 020°11'917.3
2017-Jun-19 23:30N 59°44' E 020°26'917.1
2017-Jun-19 23:00N 59°40' E 020°41'917.3
2017-Jun-19 22:30N 59°38' E 020°57'917.3
2017-Jun-19 22:00N 59°36' E 021°14'917.3
2017-Jun-19 21:30N 59°34' E 021°30'917.3
2017-Jun-19 21:00N 59°32' E 021°47'917.2
2017-Jun-19 20:30N 59°33' E 022°04'918.1
2017-Jun-19 20:00N 59°34' E 022°22'917.1
2017-Jun-19 19:31N 59°36' E 022°38'816.9
2017-Jun-19 19:00N 59°37' E 022°54'917.3
2017-Jun-19 18:30N 59°39' E 023°11'917.3
2017-Jun-19 18:01N 59°41' E 023°28'917.3
2017-Jun-19 17:31N 59°44' E 023°44'917.3
2017-Jun-19 17:01N 59°46' E 024°01'917.8
2017-Jun-19 16:30N 59°49' E 024°18'917.4
2017-Jun-19 16:00N 59°53' E 024°33'917.4
2017-Jun-19 15:30N 59°57' E 024°48'816.5
2017-Jun-19 15:00N 60°04' E 024°58'6 5.8
2017-Jun-19 13:59N 60°10' E 024°58'0 0.0
2017-Jun-19 13:29N 60°10' E 024°58'0 0.0
2017-Jun-19 12:50N 60°10' E 024°58'0 0.0
2017-Jun-19 12:29N 60°10' E 024°58'0 0.0
2017-Jun-19 11:59N 60°10' E 024°58'0 0.0
2017-Jun-19 11:29N 60°10' E 024°58'0 0.0
2017-Jun-19 10:59N 60°10' E 024°58'0 0.0
2017-Jun-19 10:29N 60°10' E 024°58'0 0.0
2017-Jun-19 09:59N 60°10' E 024°58'0 0.0
2017-Jun-19 09:29N 60°10' E 024°58'0 0.0
2017-Jun-19 08:56N 60°10' E 024°58'0 0.0
2017-Jun-19 08:29N 60°10' E 024°58'0 0.0
2017-Jun-19 07:59N 60°10' E 024°58'0 0.0
2017-Jun-19 07:29N 60°10' E 024°58'0 1.0
2017-Jun-19 07:01N 60°10' E 024°59'713.7
2017-Jun-19 06:31N 60°03' E 024°58'816.6
2017-Jun-19 06:00N 59°57' E 024°46'918.3
2017-Jun-19 05:31N 59°52' E 024°30'918.3
2017-Jun-19 05:01N 59°48' E 024°14'918.4
2017-Jun-19 04:31N 59°46' E 023°56'918.4
2017-Jun-19 04:00N 59°43' E 023°39'918.5
2017-Jun-19 03:31N 59°41' E 023°21'918.4
2017-Jun-19 03:01N 59°39' E 023°03'918.3
2017-Jun-19 02:31N 59°37' E 022°46'918.3
2017-Jun-19 02:01N 59°36' E 022°28'918.3
2017-Jun-19 01:31N 59°34' E 022°10'918.3
2017-Jun-19 01:01N 59°32' E 021°52'918.3
2017-Jun-19 00:30N 59°33' E 021°34'918.3
2017-Jun-19 00:00N 59°35' E 021°17'918.3
2017-Jun-18 23:30N 59°37' E 020°59'918.3
2017-Jun-18 23:00N 59°39' E 020°41'917.9
2017-Jun-18 22:31N 59°44' E 020°26'918.3
2017-Jun-18 22:01N 59°48' E 020°11'917.8
2017-Jun-18 21:31N 59°54' E 019°58'917.6
2017-Jun-18 21:01N 60°03' E 019°54'3 5.0
2017-Jun-18 20:30N 60°05' E 019°56'612.4
2017-Jun-18 20:01N 60°00' E 019°49'1019.7
2017-Jun-18 19:31N 59°53' E 019°35'1020.0
2017-Jun-18 19:01N 59°47' E 019°20'1019.1
2017-Jun-18 18:31N 59°42' E 019°03'612.6
2017-Jun-18 18:00N 59°38' E 018°53'612.2
2017-Jun-18 17:31N 59°35' E 018°43'510.7
2017-Jun-18 17:01N 59°32' E 018°34'510.3
2017-Jun-18 16:30N 59°29' E 018°27'5 9.4
2017-Jun-18 16:00N 59°24' E 018°26'3 6.1
2017-Jun-18 15:30N 59°22' E 018°22'510.9
2017-Jun-18 15:00N 59°20' E 018°12'3 3.2
2017-Jun-18 13:58N 59°19' E 018°06'0 0.0
2017-Jun-18 13:28N 59°19' E 018°06'0 0.0
2017-Jun-18 12:55N 59°19' E 018°06'0 0.0
2017-Jun-18 12:28N 59°19' E 018°06'0 0.0
2017-Jun-18 11:58N 59°19' E 018°06'0 0.0
2017-Jun-18 11:28N 59°19' E 018°06'0 0.0
2017-Jun-18 10:58N 59°19' E 018°06'0 0.0
2017-Jun-18 10:25N 59°19' E 018°06'0 0.0
2017-Jun-18 09:55N 59°19' E 018°06'0 0.0
2017-Jun-18 09:19N 59°19' E 018°06'0 0.0
2017-Jun-18 08:55N 59°19' E 018°06'0 0.0
2017-Jun-18 08:25N 59°19' E 018°06'0 0.0
2017-Jun-18 08:00N 59°19' E 018°06'4 7.3
2017-Jun-18 07:30N 59°20' E 018°13'611.0
2017-Jun-18 07:00N 59°22' E 018°23'2 5.0
2017-Jun-18 06:30N 59°24' E 018°26'4 7.0
2017-Jun-18 06:00N 59°27' E 018°26'510.7
2017-Jun-18 05:30N 59°32' E 018°32'510.3
2017-Jun-18 05:01N 59°35' E 018°41'612.0
2017-Jun-18 04:30N 59°38' E 018°51'510.5
2017-Jun-18 04:01N 59°41' E 018°59'815.8
2017-Jun-18 03:31N 59°44' E 019°13'815.8
2017-Jun-18 03:01N 59°48' E 019°27'816.0
2017-Jun-18 02:30N 59°54' E 019°38'816.2
2017-Jun-18 02:00N 59°60' E 019°49'612.9
2017-Jun-18 01:30N 60°05' E 019°56'3 5.9
2017-Jun-18 01:01N 60°03' E 019°54'917.4
2017-Jun-18 00:30N 59°54' E 019°58'917.3
2017-Jun-18 00:00N 59°49' E 020°11'917.5
2017-Jun-17 23:30N 59°44' E 020°26'917.2
2017-Jun-17 23:01N 59°40' E 020°41'917.4
2017-Jun-17 22:30N 59°38' E 020°58'917.4
2017-Jun-17 22:00N 59°36' E 021°14'917.4
2017-Jun-17 21:30N 59°34' E 021°31'917.4
2017-Jun-17 21:01N 59°32' E 021°48'917.4
2017-Jun-17 20:30N 59°33' E 022°05'917.5
2017-Jun-17 20:01N 59°34' E 022°22'918.1
2017-Jun-17 19:30N 59°36' E 022°40'816.9
2017-Jun-17 19:00N 59°38' E 022°56'917.5
2017-Jun-17 18:30N 59°39' E 023°13'917.4
2017-Jun-17 18:01N 59°42' E 023°30'917.4
2017-Jun-17 17:30N 59°44' E 023°46'917.4
2017-Jun-17 17:01N 59°47' E 024°03'917.4
2017-Jun-17 16:31N 59°49' E 024°19'917.4
2017-Jun-17 16:01N 59°53' E 024°35'917.4
2017-Jun-17 15:31N 59°58' E 024°49'816.6
2017-Jun-17 15:00N 60°05' E 024°58'510.1
2017-Jun-17 14:31N 60°10' E 024°58'0 0.1
2017-Jun-17 13:30N 60°10' E 024°58'0 0.0
2017-Jun-17 13:00N 60°10' E 024°58'0 0.0
2017-Jun-17 12:30N 60°10' E 024°58'0 0.0
2017-Jun-17 12:00N 60°10' E 024°58'0 0.0
2017-Jun-17 11:30N 60°10' E 024°58'0 0.0
2017-Jun-17 11:00N 60°10' E 024°58'0 0.0
2017-Jun-17 10:30N 60°10' E 024°58'0 0.0
2017-Jun-17 10:00N 60°10' E 024°58'0 0.0
2017-Jun-17 09:30N 60°10' E 024°58'0 0.0
2017-Jun-17 09:00N 60°10' E 024°58'0 0.0
2017-Jun-17 08:30N 60°10' E 024°58'0 0.0
2017-Jun-17 08:00N 60°10' E 024°58'0 0.0
2017-Jun-17 07:30N 60°10' E 024°58'0 0.8
2017-Jun-17 07:00N 60°10' E 024°59'713.8
2017-Jun-17 06:31N 60°03' E 024°58'816.6
2017-Jun-17 06:01N 59°57' E 024°46'918.4
2017-Jun-17 05:31N 59°52' E 024°30'918.3
2017-Jun-17 05:01N 59°48' E 024°14'918.4
2017-Jun-17 04:31N 59°46' E 023°56'918.4
2017-Jun-17 04:01N 59°44' E 023°38'918.4
2017-Jun-17 03:31N 59°42' E 023°21'918.4
2017-Jun-17 03:00N 59°40' E 023°03'918.4
2017-Jun-17 02:30N 59°37' E 022°45'918.4
2017-Jun-17 02:01N 59°36' E 022°27'918.4
2017-Jun-17 01:31N 59°34' E 022°09'918.4
2017-Jun-17 01:01N 59°32' E 021°51'918.3
2017-Jun-17 00:31N 59°33' E 021°33'918.5
2017-Jun-17 00:00N 59°35' E 021°16'918.4
2017-Jun-16 23:31N 59°37' E 020°58'918.5
2017-Jun-16 23:01N 59°39' E 020°40'918.1
2017-Jun-16 22:31N 59°44' E 020°25'918.5
2017-Jun-16 22:01N 59°49' E 020°10'917.8
2017-Jun-16 21:31N 59°55' E 019°57'917.2
2017-Jun-16 21:01N 60°04' E 019°54'2 3.7
2017-Jun-16 20:31N 60°05' E 019°56'612.7
2017-Jun-16 20:01N 59°60' E 019°49'917.7
2017-Jun-16 19:31N 59°54' E 019°36'917.8
2017-Jun-16 19:01N 59°47' E 019°24'917.5
2017-Jun-16 18:30N 59°44' E 019°08'815.7
2017-Jun-16 18:00N 59°39' E 018°55'511.0
2017-Jun-16 17:30N 59°36' E 018°46'611.5
2017-Jun-16 17:00N 59°33' E 018°37'5 9.9
2017-Jun-16 16:31N 59°30' E 018°29'510.9
2017-Jun-16 16:00N 59°25' E 018°24'4 7.7
2017-Jun-16 15:30N 59°22' E 018°25'510.3
2017-Jun-16 15:00N 59°21' E 018°15'5 9.7
2017-Jun-16 14:30N 59°19' E 018°06'0 0.2
2017-Jun-16 13:24N 59°19' E 018°06'0 0.0
2017-Jun-16 12:59N 59°19' E 018°06'0 0.0
2017-Jun-16 12:26N 59°19' E 018°06'0 0.0
2017-Jun-16 11:56N 59°19' E 018°06'0 0.0
2017-Jun-16 11:26N 59°19' E 018°06'0 0.0
2017-Jun-16 10:53N 59°19' E 018°06'0 0.0
2017-Jun-16 10:20N 59°19' E 018°06'0 0.0
2017-Jun-16 09:50N 59°19' E 018°06'0 0.0
2017-Jun-16 09:26N 59°19' E 018°06'0 0.0
2017-Jun-16 08:50N 59°19' E 018°06'0 0.0
2017-Jun-16 08:26N 59°19' E 018°06'0 0.0
2017-Jun-16 08:00N 59°19' E 018°06'3 6.6
2017-Jun-16 07:30N 59°20' E 018°12'611.2
2017-Jun-16 07:00N 59°22' E 018°22'3 5.5
2017-Jun-16 06:30N 59°24' E 018°27'4 7.5
2017-Jun-16 06:01N 59°27' E 018°26'510.7
2017-Jun-16 05:30N 59°32' E 018°32'510.3
2017-Jun-16 05:01N 59°35' E 018°41'612.0
2017-Jun-16 04:30N 59°38' E 018°51'510.6
2017-Jun-16 04:01N 59°41' E 018°59'816.2
2017-Jun-16 03:30N 59°44' E 019°14'816.2
2017-Jun-16 03:01N 59°49' E 019°27'816.2
2017-Jun-16 02:31N 59°55' E 019°39'816.0
2017-Jun-16 02:00N 60°00' E 019°50'611.8
2017-Jun-16 01:30N 60°05' E 019°56'3 6.1
2017-Jun-16 01:01N 60°03' E 019°54'917.4
2017-Jun-16 00:31N 59°54' E 019°58'917.4
2017-Jun-16 00:00N 59°48' E 020°11'917.8
2017-Jun-15 23:31N 59°44' E 020°26'917.6
2017-Jun-15 23:01N 59°40' E 020°42'917.6
2017-Jun-15 22:30N 59°38' E 020°59'917.6
2017-Jun-15 22:00N 59°36' E 021°16'917.6
2017-Jun-15 21:31N 59°34' E 021°33'917.5
2017-Jun-15 21:01N 59°32' E 021°50'917.8
2017-Jun-15 20:30N 59°33' E 022°07'917.8
2017-Jun-15 20:01N 59°35' E 022°24'917.8
2017-Jun-15 19:31N 59°36' E 022°42'917.8
2017-Jun-15 19:01N 59°38' E 022°59'917.8
2017-Jun-15 18:31N 59°40' E 023°16'917.7
2017-Jun-15 18:01N 59°42' E 023°33'917.7
2017-Jun-15 17:31N 59°45' E 023°50'917.8
2017-Jun-15 17:00N 59°47' E 024°07'918.7
2017-Jun-15 16:31N 59°50' E 024°24'816.8
2017-Jun-15 16:00N 59°55' E 024°39'917.8
2017-Jun-15 15:30N 59°59' E 024°54'816.1
2017-Jun-15 15:00N 60°07' E 024°59'3 5.9
2017-Jun-15 14:30N 60°10' E 024°58'0 0.0
2017-Jun-15 13:29N 60°10' E 024°58'0 0.0
2017-Jun-15 12:59N 60°10' E 024°58'0 0.0
2017-Jun-15 12:28N 60°10' E 024°58'0 0.0
2017-Jun-15 12:00N 60°10' E 024°58'0 0.0
2017-Jun-15 11:26N 60°10' E 024°58'0 0.0
2017-Jun-15 10:58N 60°10' E 024°58'0 0.0
2017-Jun-15 10:29N 60°10' E 024°58'0 0.0
2017-Jun-15 09:59N 60°10' E 024°58'21 4.8
2017-Jun-15 05:36N 59°53' E 024°33'418.4
2017-Jun-15 05:22N 59°51' E 024°26'618.2
2017-Jun-15 05:00N 59°48' E 024°14'918.3
2017-Jun-15 04:30N 59°46' E 023°56'918.3
2017-Jun-15 04:00N 59°44' E 023°38'918.3
2017-Jun-15 03:31N 59°41' E 023°21'918.3
2017-Jun-15 03:01N 59°39' E 023°03'918.3
2017-Jun-15 02:30N 59°37' E 022°45'918.3
2017-Jun-15 02:00N 59°36' E 022°28'918.2
2017-Jun-15 01:30N 59°34' E 022°10'918.2
2017-Jun-15 01:00N 59°32' E 021°53'918.3
2017-Jun-15 00:31N 59°33' E 021°35'1018.3
2017-Jun-14 23:58N 59°35' E 021°15'4317.7
2017-Jun-14 21:32N 59°53' E 019°58'013.5
2017-Jun-14 21:30N 59°54' E 019°58'917.9
2017-Jun-14 21:01N 60°02' E 019°53'3 6.5
2017-Jun-14 20:30N 60°05' E 019°56'713.1
2017-Jun-14 20:00N 59°60' E 019°49'1020.6
2017-Jun-14 19:31N 59°52' E 019°34'1020.4
2017-Jun-14 19:01N 59°46' E 019°20'1019.0
2017-Jun-14 18:31N 59°42' E 019°02'714.0
2017-Jun-14 18:00N 59°38' E 018°51'5 9.8
2017-Jun-14 17:30N 59°35' E 018°43'510.6
2017-Jun-14 17:00N 59°32' E 018°34'510.1
2017-Jun-14 16:30N 59°29' E 018°27'5 9.3
2017-Jun-14 16:00N 59°24' E 018°26'3 5.6
2017-Jun-14 15:30N 59°22' E 018°23'510.4
2017-Jun-14 15:01N 59°20' E 018°13'4 4.0
2017-Jun-14 14:00N 59°19' E 018°06'  

Dump ship's entire track history